createdAt,value
2019-03-08T00:00:28.994Z,98.90
2019-03-08T00:02:58.446Z,99.00
2019-03-08T00:05:25.927Z,99.60
2019-03-08T00:07:53.352Z,99.70
2019-03-08T00:10:21.265Z,99.90
2019-03-08T00:12:48.794Z,99.90
2019-03-08T00:15:16.351Z,99.90
2019-03-08T00:17:43.952Z,99.90
2019-03-08T00:20:11.853Z,99.90
2019-03-08T00:22:39.420Z,99.90
2019-03-08T00:25:07.362Z,99.90
2019-03-08T00:27:34.920Z,99.90
2019-03-08T00:30:02.597Z,99.90
2019-03-08T00:32:30.231Z,99.90
2019-03-08T00:34:57.954Z,99.90
2019-03-08T00:37:25.367Z,99.90
2019-03-08T00:39:54.064Z,99.90
2019-03-08T00:42:21.334Z,99.90
2019-03-08T00:44:48.847Z,99.90
2019-03-08T00:47:16.345Z,99.90
2019-03-08T00:49:43.907Z,99.90
2019-03-08T00:52:11.611Z,99.90
2019-03-08T00:54:38.915Z,99.90
2019-03-08T00:57:06.334Z,99.90
2019-03-08T00:59:34.819Z,99.90
2019-03-08T01:02:02.134Z,99.90
2019-03-08T01:04:29.663Z,99.90
2019-03-08T01:06:57.169Z,99.90
2019-03-08T01:09:24.886Z,99.90
2019-03-08T01:11:52.305Z,99.90
2019-03-08T01:14:19.793Z,99.90
2019-03-08T01:16:47.354Z,99.90
2019-03-08T01:19:14.946Z,99.90
2019-03-08T01:21:42.486Z,99.90
2019-03-08T01:24:10.465Z,99.90
2019-03-08T01:26:37.942Z,99.90
2019-03-08T01:29:05.531Z,99.90
2019-03-08T01:31:34.048Z,99.90
2019-03-08T01:34:01.487Z,99.90
2019-03-08T01:36:28.887Z,99.90
2019-03-08T01:38:56.520Z,99.90
2019-03-08T01:41:24.227Z,99.90
2019-03-08T01:43:51.564Z,99.90
2019-03-08T01:46:18.873Z,99.90
2019-03-08T01:48:46.363Z,99.90
2019-03-08T01:51:14.765Z,99.90
2019-03-08T01:53:42.257Z,99.90
2019-03-08T01:56:10.161Z,99.90
2019-03-08T01:58:37.705Z,99.90
2019-03-08T02:01:05.057Z,99.90
2019-03-08T02:03:32.676Z,99.90
2019-03-08T02:06:00.190Z,99.90
2019-03-08T02:08:27.642Z,99.90
2019-03-08T02:10:55.383Z,99.90
2019-03-08T02:13:23.049Z,99.90
2019-03-08T02:15:50.634Z,99.90
2019-03-08T02:18:18.221Z,99.90
2019-03-08T02:20:45.738Z,99.90
2019-03-08T02:23:15.994Z,99.90
2019-03-08T02:25:43.369Z,99.90
2019-03-08T02:28:10.899Z,99.90
2019-03-08T02:30:38.574Z,99.90
2019-03-08T02:33:06.552Z,99.90
2019-03-08T02:35:33.942Z,99.90
2019-03-08T02:38:01.506Z,99.90
2019-03-08T02:40:33.329Z,99.90
2019-03-08T02:43:01.993Z,99.90
2019-03-08T02:45:29.494Z,99.90
2019-03-08T02:47:57.046Z,99.90
2019-03-08T02:50:24.685Z,99.90
2019-03-08T02:52:52.454Z,99.90
2019-03-08T02:55:19.946Z,99.90
2019-03-08T02:57:47.677Z,99.90
2019-03-08T03:00:15.101Z,99.90
2019-03-08T03:02:42.567Z,99.90
2019-03-08T03:05:10.129Z,99.90
2019-03-08T03:07:37.510Z,99.90
2019-03-08T03:10:05.473Z,99.90
2019-03-08T03:12:33.158Z,99.90
2019-03-08T03:15:00.611Z,99.90
2019-03-08T03:17:28.011Z,99.90
2019-03-08T03:19:55.578Z,99.90
2019-03-08T03:22:23.018Z,99.90
2019-03-08T03:24:50.574Z,99.90
2019-03-08T03:27:18.339Z,99.90
2019-03-08T03:29:46.329Z,99.90
2019-03-08T03:32:13.894Z,99.90
2019-03-08T03:34:41.174Z,99.90
2019-03-08T03:37:08.677Z,99.90
2019-03-08T03:39:35.981Z,99.90
2019-03-08T03:42:03.722Z,99.90
2019-03-08T03:44:31.534Z,99.90
2019-03-08T03:46:59.017Z,99.90
2019-03-08T03:49:26.607Z,99.90
2019-03-08T03:51:54.126Z,99.90
2019-03-08T03:54:23.516Z,99.90
2019-03-08T03:56:51.131Z,99.90
2019-03-08T03:59:18.781Z,99.90
2019-03-08T04:01:49.302Z,99.90
2019-03-08T04:04:16.846Z,99.90
2019-03-08T04:06:44.311Z,99.90
2019-03-08T04:09:12.346Z,99.90
2019-03-08T04:11:40.011Z,99.90
2019-03-08T04:14:07.555Z,99.90
2019-03-08T04:16:35.751Z,99.90
2019-03-08T04:19:03.222Z,99.90
2019-03-08T04:21:30.744Z,99.90
2019-03-08T04:23:58.043Z,99.90
2019-03-08T04:26:25.566Z,99.90
2019-03-08T04:28:53.026Z,99.90
2019-03-08T04:31:20.430Z,99.90
2019-03-08T04:33:48.109Z,99.90
2019-03-08T04:36:15.659Z,99.90
2019-03-08T04:38:43.167Z,99.90
2019-03-08T04:41:10.589Z,99.90
2019-03-08T04:43:38.077Z,99.90
2019-03-08T04:46:05.443Z,99.90
2019-03-08T04:48:32.815Z,99.90
2019-03-08T04:51:00.664Z,99.90
2019-03-08T04:53:28.462Z,99.90
2019-03-08T04:55:56.079Z,99.90
2019-03-08T04:58:23.595Z,99.90
2019-03-08T05:00:51.138Z,99.90
2019-03-08T05:03:18.641Z,99.90
2019-03-08T05:05:46.423Z,99.90
2019-03-08T05:08:14.042Z,99.90
2019-03-08T05:10:41.812Z,99.90
2019-03-08T05:13:09.439Z,99.90
2019-03-08T05:15:36.926Z,99.90
2019-03-08T05:18:04.380Z,99.90
2019-03-08T05:20:32.475Z,99.90
2019-03-08T05:22:59.956Z,99.90
2019-03-08T05:25:27.501Z,99.90
2019-03-08T05:27:55.114Z,99.90
2019-03-08T05:30:23.514Z,99.90
2019-03-08T05:32:51.105Z,99.90
2019-03-08T05:35:18.756Z,99.90
2019-03-08T05:37:46.785Z,99.90
2019-03-08T05:40:14.593Z,99.90
2019-03-08T05:42:42.205Z,99.90
2019-03-08T05:45:10.489Z,99.90
2019-03-08T05:47:38.286Z,99.90
2019-03-08T05:50:05.962Z,99.90
2019-03-08T05:52:33.430Z,99.90
2019-03-08T05:55:01.103Z,99.90
2019-03-08T05:57:28.536Z,99.90
2019-03-08T05:59:56.090Z,99.90
2019-03-08T06:02:23.914Z,99.90
2019-03-08T06:04:51.612Z,99.90
2019-03-08T06:07:19.181Z,99.90
2019-03-08T06:09:46.561Z,99.90
2019-03-08T06:12:14.329Z,99.90
2019-03-08T06:14:41.895Z,99.90
2019-03-08T06:17:09.278Z,99.90
2019-03-08T06:19:36.802Z,99.90
2019-03-08T06:22:04.272Z,99.90
2019-03-08T06:24:31.850Z,99.90
2019-03-08T06:26:59.315Z,99.90
2019-03-08T06:29:27.058Z,99.90
2019-03-08T06:31:54.607Z,99.90
2019-03-08T06:34:23.132Z,99.90
2019-03-08T06:36:50.562Z,99.90
2019-03-08T06:39:18.026Z,99.90
2019-03-08T06:41:45.475Z,99.90
2019-03-08T06:44:13.066Z,99.90
2019-03-08T06:46:40.618Z,99.90
2019-03-08T06:49:08.029Z,99.90
2019-03-08T06:51:35.405Z,99.90
2019-03-08T06:54:03.147Z,99.90
2019-03-08T06:56:30.823Z,99.90
2019-03-08T06:59:32.995Z,99.90
2019-03-08T07:02:30.132Z,99.90
2019-03-08T07:04:57.371Z,99.90
2019-03-08T07:07:24.925Z,99.90
2019-03-08T07:09:52.419Z,99.90
2019-03-08T07:12:20.134Z,99.90
2019-03-08T07:14:47.679Z,99.90
2019-03-08T07:17:15.392Z,99.90
2019-03-08T07:20:00.856Z,99.90
2019-03-08T07:22:54.366Z,99.90
2019-03-08T07:25:51.230Z,99.90
2019-03-08T07:28:30.766Z,99.90
2019-03-08T07:31:23.794Z,99.90
2019-03-08T07:34:08.383Z,99.90
2019-03-08T07:36:53.821Z,99.90
2019-03-08T07:39:48.409Z,99.90
2019-03-08T07:42:23.258Z,99.90
2019-03-08T07:45:09.190Z,99.90
2019-03-08T07:48:02.161Z,99.90
2019-03-08T07:50:51.246Z,99.90
2019-03-08T07:53:31.814Z,99.90
2019-03-08T07:56:22.690Z,99.90
2019-03-08T07:59:12.947Z,99.90
2019-03-08T08:02:00.195Z,99.90
2019-03-08T08:04:53.498Z,99.90
2019-03-08T08:07:28.098Z,99.90
2019-03-08T08:10:13.834Z,99.90
2019-03-08T08:13:07.066Z,99.90
2019-03-08T08:16:09.219Z,99.90
2019-03-08T08:18:59.298Z,99.90
2019-03-08T08:22:01.453Z,99.90
2019-03-08T08:24:51.486Z,99.90
2019-03-08T08:27:30.979Z,99.90
2019-03-08T08:30:10.457Z,99.90
2019-03-08T08:33:06.333Z,99.90
2019-03-08T08:35:52.424Z,99.90
2019-03-08T08:38:45.308Z,99.90
2019-03-08T08:41:26.394Z,99.90
2019-03-08T08:44:13.498Z,99.10
2019-03-08T08:47:06.531Z,98.70
2019-03-08T08:49:41.972Z,98.70
2019-03-08T08:52:19.672Z,98.70
2019-03-08T08:55:12.343Z,98.20
2019-03-08T08:58:05.659Z,98.00
2019-03-08T09:01:11.064Z,97.80
2019-03-08T09:03:58.150Z,97.80
2019-03-08T09:06:40.605Z,98.10
2019-03-08T09:09:21.073Z,98.20
2019-03-08T09:11:56.182Z,98.30
2019-03-08T09:14:30.749Z,98.40
2019-03-08T09:17:13.555Z,98.10
2019-03-08T09:20:15.386Z,98.00
2019-03-08T09:23:03.482Z,97.80
2019-03-08T09:25:39.337Z,97.80
2019-03-08T09:28:25.099Z,97.60
2019-03-08T09:31:12.129Z,97.40
2019-03-08T09:33:49.297Z,97.20
2019-03-08T09:36:45.137Z,96.90
2019-03-08T09:39:41.276Z,96.60
2019-03-08T09:42:36.419Z,96.40
2019-03-08T09:45:33.475Z,95.30
2019-03-08T09:48:24.864Z,94.10
2019-03-08T09:51:11.949Z,93.70
2019-03-08T09:53:53.669Z,92.90
2019-03-08T09:56:26.161Z,92.80
2019-03-08T09:59:05.382Z,92.30
2019-03-08T10:01:44.293Z,91.40
2019-03-08T10:04:29.652Z,91.70
2019-03-08T10:07:05.553Z,91.20
2019-03-08T10:09:51.338Z,90.40
2019-03-08T10:12:44.541Z,90.10
2019-03-08T10:15:32.726Z,87.10
2019-03-08T10:18:08.961Z,85.70
2019-03-08T10:20:42.311Z,85.10
2019-03-08T10:23:36.219Z,82.60
2019-03-08T10:26:12.485Z,80.40
2019-03-08T10:28:48.011Z,81.20
2019-03-08T10:31:43.788Z,80.00
2019-03-08T10:34:24.048Z,77.30
2019-03-08T10:37:16.983Z,75.50
2019-03-08T10:40:10.089Z,74.90
2019-03-08T10:42:59.477Z,70.90
2019-03-08T10:45:44.881Z,68.10
2019-03-08T10:48:34.965Z,65.80
2019-03-08T10:51:24.767Z,64.90
2019-03-08T10:54:01.071Z,64.60
2019-03-08T10:56:48.392Z,64.70
2019-03-08T10:59:28.734Z,64.50
2019-03-08T11:02:24.981Z,64.20
2019-03-08T11:04:58.112Z,63.00
2019-03-08T11:07:38.852Z,61.70
2019-03-08T11:10:35.515Z,61.30
2019-03-08T11:13:22.637Z,61.30
2019-03-08T11:16:15.597Z,60.00
2019-03-08T11:18:52.319Z,59.30
2019-03-08T11:21:38.441Z,59.60
2019-03-08T11:27:19.357Z,58.60
2019-03-08T11:30:02.385Z,58.50
2019-03-08T11:32:38.986Z,58.10
2019-03-08T11:35:13.300Z,58.10
2019-03-08T11:37:49.458Z,58.50
2019-03-08T11:40:46.604Z,58.30
2019-03-08T11:43:30.354Z,58.10
2019-03-08T11:46:07.390Z,57.50
2019-03-08T11:48:50.022Z,57.60
2019-03-08T11:51:35.951Z,57.80
2019-03-08T11:54:11.239Z,58.30
2019-03-08T11:56:58.319Z,58.20
2019-03-08T11:59:43.254Z,59.10
2019-03-08T12:02:20.581Z,59.40
2019-03-08T12:05:01.854Z,59.50
2019-03-08T12:07:38.415Z,60.20
2019-03-08T12:10:32.127Z,60.50
2019-03-08T12:13:09.938Z,60.10
2019-03-08T12:15:55.869Z,59.90
2019-03-08T12:18:46.688Z,59.70
2019-03-08T12:21:32.841Z,60.10
2019-03-08T12:24:23.344Z,60.10
2019-03-08T12:27:17.723Z,60.60
2019-03-08T12:30:01.536Z,62.50
2019-03-08T12:32:37.910Z,64.10
2019-03-08T12:35:16.486Z,65.20
2019-03-08T12:38:03.401Z,66.20
2019-03-08T12:40:53.550Z,66.60
2019-03-08T12:43:49.687Z,65.30
2019-03-08T12:46:45.825Z,64.60
2019-03-08T12:49:33.993Z,64.50
2019-03-08T12:52:12.269Z,63.90
2019-03-08T12:55:01.769Z,63.80
2019-03-08T12:58:06.806Z,63.50
2019-03-08T13:00:45.226Z,63.30
2019-03-08T13:03:32.753Z,63.70
2019-03-08T13:06:22.396Z,64.10
2019-03-08T13:08:56.399Z,64.10
2019-03-08T13:11:32.705Z,64.40
2019-03-08T13:13:53.088Z,64.80
2019-03-08T13:16:20.735Z,64.30
2019-03-08T13:18:48.207Z,64.00
2019-03-08T13:21:15.773Z,63.90
2019-03-08T13:23:43.302Z,63.70
2019-03-08T13:26:10.846Z,62.90
2019-03-08T13:28:38.308Z,61.10
2019-03-08T13:31:05.635Z,60.50
2019-03-08T13:33:33.146Z,60.30
2019-03-08T13:36:00.657Z,59.40
2019-03-08T13:38:28.084Z,59.40
2019-03-08T13:40:55.454Z,59.70
2019-03-08T13:43:22.765Z,59.40
2019-03-08T13:45:50.386Z,59.40
2019-03-08T13:48:17.797Z,59.30
2019-03-08T13:50:45.103Z,59.50
2019-03-08T13:53:12.505Z,59.40
2019-03-08T13:55:40.097Z,59.20
2019-03-08T13:58:07.531Z,59.40
2019-03-08T14:00:35.067Z,59.80
2019-03-08T14:03:02.706Z,59.90
2019-03-08T14:05:30.118Z,60.50
2019-03-08T14:07:57.585Z,61.20
2019-03-08T14:10:25.362Z,61.30
2019-03-08T14:12:52.730Z,62.10
2019-03-08T14:15:20.115Z,62.10
2019-03-08T14:17:47.531Z,62.20
2019-03-08T14:20:16.788Z,63.50
2019-03-08T14:22:44.400Z,64.60
2019-03-08T14:25:11.975Z,64.00
2019-03-08T14:27:40.734Z,63.70
2019-03-08T14:30:09.760Z,63.90
2019-03-08T14:32:37.244Z,64.30
2019-03-08T14:35:04.988Z,64.50
2019-03-08T14:37:32.353Z,64.40
2019-03-08T14:40:00.006Z,64.40
2019-03-08T14:42:49.819Z,64.60
2019-03-08T14:45:29.430Z,65.20
2019-03-08T14:47:58.566Z,64.60
2019-03-08T14:50:26.117Z,64.90
2019-03-08T14:52:55.191Z,63.90
2019-03-08T14:55:23.889Z,63.70
2019-03-08T14:57:55.043Z,63.80
2019-03-08T15:00:25.350Z,63.50
2019-03-08T15:02:53.500Z,62.90
2019-03-08T15:05:21.010Z,62.70
2019-03-08T15:07:48.599Z,62.00
2019-03-08T15:10:17.749Z,61.60
2019-03-08T15:12:49.137Z,61.90
2019-03-08T15:15:15.753Z,61.50
2019-03-08T15:17:43.326Z,61.20
2019-03-08T15:20:15.467Z,61.40
2019-03-08T15:22:42.125Z,61.70
2019-03-08T15:25:12.522Z,61.40
2019-03-08T15:27:39.166Z,61.60
2019-03-08T15:30:09.549Z,61.30
2019-03-08T15:32:36.979Z,61.50
2019-03-08T15:35:05.829Z,62.70
2019-03-08T15:37:33.632Z,61.70
2019-03-08T15:40:01.100Z,63.20
2019-03-08T15:42:28.512Z,62.50
2019-03-08T15:44:55.955Z,62.80
2019-03-08T15:47:24.086Z,62.80
2019-03-08T15:49:51.617Z,61.70
2019-03-08T15:52:19.335Z,62.80
2019-03-08T15:54:46.875Z,62.90
2019-03-08T15:57:14.354Z,63.00
2019-03-08T15:59:41.724Z,63.20
2019-03-08T16:02:09.257Z,63.20
2019-03-08T16:04:36.689Z,63.10
2019-03-08T16:07:04.251Z,63.30
2019-03-08T16:09:31.558Z,63.50
2019-03-08T16:11:59.093Z,63.90
2019-03-08T16:14:26.613Z,64.10
2019-03-08T16:16:54.002Z,64.70
2019-03-08T16:19:24.733Z,64.50
2019-03-08T16:21:51.970Z,64.50
2019-03-08T16:24:20.618Z,64.80
2019-03-08T16:26:48.150Z,65.00
2019-03-08T16:29:15.737Z,65.30
2019-03-08T16:32:17.727Z,65.40
2019-03-08T16:34:45.386Z,65.80
2019-03-08T16:37:21.052Z,65.90
2019-03-08T16:40:20.370Z,66.30
2019-03-08T16:43:07.640Z,66.70
2019-03-08T16:45:44.083Z,66.90
2019-03-08T16:48:25.226Z,67.10
2019-03-08T16:51:07.241Z,67.40
2019-03-08T16:53:47.526Z,67.70
2019-03-08T16:56:31.459Z,67.70
2019-03-08T16:59:10.178Z,67.90
2019-03-08T17:01:52.251Z,68.30
2019-03-08T17:04:31.760Z,68.50
2019-03-08T17:07:30.808Z,68.80
2019-03-08T17:10:16.280Z,68.90
2019-03-08T17:12:57.629Z,69.20
2019-03-08T17:15:59.370Z,69.40
2019-03-08T17:18:43.757Z,69.60
2019-03-08T17:21:39.368Z,69.90
2019-03-08T17:24:32.242Z,70.20
2019-03-08T17:27:10.290Z,70.60
2019-03-08T17:30:00.031Z,70.70
2019-03-08T17:32:43.500Z,70.80
2019-03-08T17:35:35.186Z,70.80
2019-03-08T17:38:22.542Z,71.00
2019-03-08T17:41:05.547Z,71.20
2019-03-08T17:43:51.261Z,71.40
2019-03-08T17:46:38.411Z,71.60
2019-03-08T17:49:28.623Z,71.70
2019-03-08T17:52:32.000Z,71.40
2019-03-08T17:55:32.633Z,71.10
2019-03-08T17:58:20.093Z,71.00
2019-03-08T18:01:22.175Z,71.10
2019-03-08T18:04:12.361Z,70.90
2019-03-08T18:07:16.389Z,70.90
2019-03-08T18:10:12.597Z,70.90
2019-03-08T18:13:08.989Z,71.00
2019-03-08T18:15:54.837Z,71.00
2019-03-08T18:18:40.221Z,71.10
2019-03-08T18:21:20.449Z,71.20
2019-03-08T18:24:23.264Z,71.30
2019-03-08T18:27:13.920Z,71.30
2019-03-08T18:30:01.363Z,71.40
2019-03-08T18:32:43.869Z,71.40
2019-03-08T18:35:29.877Z,71.60
2019-03-08T18:38:35.139Z,71.80
2019-03-08T18:41:28.763Z,71.70
2019-03-08T18:44:25.348Z,72.10
2019-03-08T18:47:06.686Z,72.10
2019-03-08T18:50:12.669Z,72.20
2019-03-08T18:52:58.113Z,72.40
2019-03-08T18:55:43.846Z,72.40
2019-03-08T18:58:33.770Z,72.70
2019-03-08T19:01:20.962Z,72.70
2019-03-08T19:04:10.926Z,72.80
2019-03-08T19:07:04.347Z,73.10
2019-03-08T19:09:54.148Z,73.40
2019-03-08T19:12:39.727Z,73.50
2019-03-08T19:15:40.028Z,73.70
2019-03-08T19:18:28.515Z,74.00
2019-03-08T19:21:12.831Z,74.30
2019-03-08T19:23:58.366Z,74.50
2019-03-08T19:26:46.362Z,74.60
2019-03-08T19:29:31.125Z,74.90
2019-03-08T19:32:25.783Z,75.20
2019-03-08T19:35:11.431Z,75.50
2019-03-08T19:38:04.310Z,75.70
2019-03-08T19:40:57.940Z,75.90
2019-03-08T19:43:37.145Z,76.20
2019-03-08T19:46:26.663Z,78.00
2019-03-08T19:49:08.101Z,78.20
2019-03-08T19:51:45.209Z,78.20
2019-03-08T19:54:20.321Z,78.30
2019-03-08T19:57:04.225Z,78.60
2019-03-08T19:59:37.822Z,78.80
2019-03-08T20:02:41.717Z,79.00
2019-03-08T20:05:12.017Z,79.20
2019-03-08T20:07:58.505Z,79.40
2019-03-08T20:11:05.874Z,79.70
2019-03-08T20:13:52.789Z,79.80
2019-03-08T20:16:37.077Z,80.00
2019-03-08T20:19:16.915Z,80.30
2019-03-08T20:22:13.502Z,80.60
2019-03-08T20:25:09.732Z,80.70
2019-03-08T20:27:56.959Z,81.10
2019-03-08T20:30:59.282Z,81.30
2019-03-08T20:33:52.524Z,81.70
2019-03-08T20:36:51.503Z,81.90
2019-03-08T20:39:53.355Z,82.00
2019-03-08T20:42:52.601Z,82.30
2019-03-08T20:45:33.383Z,82.40
2019-03-08T20:48:00.749Z,82.90
2019-03-08T20:50:28.372Z,83.00
2019-03-08T20:52:55.868Z,83.70
2019-03-08T20:55:23.262Z,85.60
2019-03-08T20:57:50.559Z,85.40
2019-03-08T21:00:18.614Z,85.60
2019-03-08T21:02:46.270Z,85.70
2019-03-08T21:05:14.038Z,85.80
2019-03-08T21:07:41.802Z,86.10
2019-03-08T21:10:09.636Z,86.20
2019-03-08T21:12:36.993Z,86.40
2019-03-08T21:15:06.538Z,86.60
2019-03-08T21:17:35.150Z,86.80
2019-03-08T21:20:03.248Z,87.00
2019-03-08T21:22:30.767Z,87.10
2019-03-08T21:24:59.886Z,87.40
2019-03-08T21:27:27.694Z,87.60
2019-03-08T21:29:55.245Z,87.60
2019-03-08T21:32:22.786Z,87.70
2019-03-08T21:34:50.325Z,87.90
2019-03-08T21:37:18.113Z,88.70
2019-03-08T21:39:45.633Z,88.20
2019-03-08T21:42:13.371Z,88.40
2019-03-08T21:44:40.686Z,88.60
2019-03-08T21:47:08.407Z,89.00
2019-03-08T21:49:35.861Z,89.20
2019-03-08T21:52:03.224Z,89.50
2019-03-08T21:54:30.910Z,89.50
2019-03-08T21:57:11.677Z,89.80
2019-03-08T21:59:39.207Z,89.90
2019-03-08T22:02:06.508Z,90.30
2019-03-08T22:04:55.002Z,90.20
2019-03-08T22:07:22.497Z,90.90
2019-03-08T22:10:04.417Z,90.70
2019-03-08T22:12:32.340Z,90.70
2019-03-08T22:14:59.975Z,90.80
2019-03-08T22:17:27.816Z,90.80
2019-03-08T22:19:55.214Z,90.90
2019-03-08T22:22:22.838Z,91.00
2019-03-08T22:24:50.417Z,91.00
2019-03-08T22:27:19.776Z,91.10
2019-03-08T22:29:47.314Z,91.20
2019-03-08T22:32:14.950Z,91.20
2019-03-08T22:34:42.648Z,91.30
2019-03-08T22:37:10.231Z,91.30
2019-03-08T22:39:37.870Z,91.50
2019-03-08T22:42:05.426Z,91.60
2019-03-08T22:44:32.943Z,91.70
2019-03-08T22:47:00.461Z,91.80
2019-03-08T22:49:27.914Z,92.10
2019-03-08T22:51:55.347Z,92.00
2019-03-08T22:54:22.730Z,92.10
2019-03-08T22:56:51.380Z,92.10
2019-03-08T22:59:19.113Z,92.60
2019-03-08T23:01:52.212Z,92.50
2019-03-08T23:04:19.750Z,92.60
2019-03-08T23:06:47.279Z,92.70
2019-03-08T23:09:15.989Z,92.90
2019-03-08T23:11:43.864Z,93.00
2019-03-08T23:14:11.569Z,93.10
2019-03-08T23:16:51.907Z,93.20
2019-03-08T23:19:19.330Z,93.30
2019-03-08T23:21:46.726Z,93.90
2019-03-08T23:24:14.245Z,93.90
2019-03-08T23:27:06.423Z,94.00
2019-03-08T23:29:56.135Z,94.10
2019-03-08T23:32:28.270Z,94.20
2019-03-08T23:34:55.689Z,94.20
2019-03-08T23:37:23.206Z,94.20
2019-03-08T23:39:50.724Z,94.40
2019-03-08T23:42:18.217Z,94.30
2019-03-08T23:44:45.936Z,94.30
2019-03-08T23:47:13.417Z,94.50
2019-03-08T23:49:40.895Z,94.60
2019-03-08T23:52:08.485Z,94.60
2019-03-08T23:54:35.916Z,94.80
2019-03-08T23:57:05.267Z,94.80
2019-03-08T23:59:32.712Z,94.90
